Castries, Saint Lucia
Current Conditions -  °F | °C
As of 8:00 AM on Tuesday 21 Oct 2014 (Local Time) from TLPC Reporting Station
Broken Clouds Broken Clouds  
Wind Chill: 84°   Ceiling: 29000
Heat Index: 92°   Visibility: 6mi
Dew Point: 75°   Wind: 0mph
Humidity: 74%   Direction: NA
Pressure: 29.91"   Gusts: NA
Location:  14.03°N, 60.98°W
Report Text: TLPC 211200Z 00000KT 9999 FEW024 BKN290 29/24 Q1013 NOSIG
Loading
Personal Weather Stations






























Interactive Weather Map
Tropical Storm Tracking
New forecast layout! Learn more

10-Day Weather Forecast

Advertisements
Track Severe Weather on mobile